Time;durP1;ratioP1;P1;durP2;ratioP2;P2;SDS_P1;SDS_P2;PMS_P1;PMS_P2;Temp;Humidity;BMP_temperature;BMP_pressure;BME280_temperature;BME280_humidity;BME280_pressure;Samples;Min_cycle;Max_cycle;Signal;HPM_P1;HPM_P2
2022/10/19 00:01:25;;;;;;;;;;;11.70;99.90;;;;;;5124962;27;1322;-56
2022/10/19 00:04:03;;;;;;;;;;;11.80;99.90;;;;;;5130920;27;1320;-56
2022/10/19 00:06:41;;;;;;;;;;;11.80;99.90;;;;;;5132177;27;1324;-56
2022/10/19 00:09:20;;;;;;;;;;;11.90;99.90;;;;;;5124630;27;1628;-56
2022/10/19 00:11:58;;;;;;;;;;;11.80;99.90;;;;;;5116661;27;1687;-57
2022/10/19 00:14:38;;;;;;;;;;;11.80;99.90;;;;;;5131830;27;1250;-56
2022/10/19 00:17:16;;;;;;;;;;;11.60;99.90;;;;;;5130181;27;1324;-56
2022/10/19 00:19:54;;;;;;;;;;;11.40;99.90;;;;;;5132570;27;1406;-56
2022/10/19 00:22:32;;;;;;;;;;;11.20;99.90;;;;;;5117252;27;1387;-57
2022/10/19 00:25:11;;;;;;;;;;;11.00;99.90;;;;;;5132919;27;1722;-56
2022/10/19 00:27:50;;;;;;;;;;;10.90;99.90;;;;;;5131868;27;1550;-56
2022/10/19 00:30:27;;;;;;;;;;;10.80;99.90;;;;;;5106473;27;1663;-57
2022/10/19 00:33:05;;;;;;;;;;;10.60;99.90;;;;;;5105435;27;1648;-56
2022/10/19 00:35:46;;;;;;;;;;;10.60;99.90;;;;;;5132160;27;1323;-55
2022/10/19 00:38:23;;;;;;;;;;;10.50;99.90;;;;;;5130085;27;1346;-56
2022/10/19 00:41:02;;;;;;;;;;;10.40;99.90;;;;;;5132195;27;1473;-57
2022/10/19 00:43:54;;;;;;;;;;;10.30;99.90;;;;;;5124095;27;1335;-55
2022/10/19 00:46:32;;;;;;;;;;;10.30;99.90;;;;;;5130631;27;2179;-57
2022/10/19 00:49:10;;;;;;;;;;;10.40;99.90;;;;;;5119706;27;1644;-57
2022/10/19 00:51:49;;;;;;;;;;;10.40;99.90;;;;;;5104262;27;1275;-57
2022/10/19 00:54:25;;;;;;;;;;;10.60;99.90;;;;;;5130672;27;1639;-57
2022/10/19 00:57:04;;;;;;;;;;;10.70;99.90;;;;;;5131826;27;1357;-56
2022/10/19 00:59:43;;;;;;;;;;;10.90;99.90;;;;;;5117302;27;1468;-57
2022/10/19 01:02:20;;;;;;;;;;;11.00;99.90;;;;;;5117405;27;2444;-56
2022/10/19 01:04:59;;;;;;;;;;;11.20;99.90;;;;;;5127993;27;1706;-57
2022/10/19 01:07:37;;;;;;;;;;;11.30;99.90;;;;;;5112099;27;1651;-57
2022/10/19 01:10:15;;;;;;;;;;;11.40;99.90;;;;;;5106949;27;1628;-55
2022/10/19 01:13:01;;;;;;;;;;;11.50;99.90;;;;;;5095838;27;1323;-55
2022/10/19 01:15:44;;;;;;;;;;;11.50;99.90;;;;;;5131720;27;1564;-56
2022/10/19 01:18:25;;;;;;;;;;;11.60;99.90;;;;;;5132128;27;1335;-56
2022/10/19 01:21:18;;;;;;;;;;;11.60;99.90;;;;;;5132271;27;1381;-55
2022/10/19 01:24:16;;;;;;;;;;;11.60;99.90;;;;;;5132661;27;1336;-57
2022/10/19 01:27:11;;;;;;;;;;;11.70;99.90;;;;;;5132734;27;1332;-55
2022/10/19 01:29:54;;;;;;;;;;;11.70;99.90;;;;;;5126691;27;1586;-55
2022/10/19 01:32:34;;;;;;;;;;;11.60;99.90;;;;;;5115558;27;1495;-57
2022/10/19 01:35:18;;;;;;;;;;;11.60;99.90;;;;;;5112690;27;1408;-55
2022/10/19 01:38:04;;;;;;;;;;;11.60;99.90;;;;;;5128518;27;1735;-55
2022/10/19 01:40:46;;;;;;;;;;;11.60;99.90;;;;;;5131106;27;1336;-56
2022/10/19 01:43:26;;;;;;;;;;;11.50;99.90;;;;;;5127341;27;1626;-57
2022/10/19 01:46:07;;;;;;;;;;;11.50;99.90;;;;;;5132331;27;1495;-57
2022/10/19 01:48:48;;;;;;;;;;;11.50;99.90;;;;;;5092167;27;1752;-57
2022/10/19 01:51:28;;;;;;;;;;;11.40;99.90;;;;;;5108925;27;2139;-56
2022/10/19 01:54:09;;;;;;;;;;;11.40;99.90;;;;;;5092882;27;1457;-57
2022/10/19 01:56:48;;;;;;;;;;;11.40;99.90;;;;;;5120647;27;1367;-56
2022/10/19 01:59:26;;;;;;;;;;;11.40;99.90;;;;;;5084286;27;2172;-58
2022/10/19 02:02:05;;;;;;;;;;;11.30;99.90;;;;;;5108710;27;2616;-56
2022/10/19 02:04:42;;;;;;;;;;;11.30;99.90;;;;;;5119556;27;1353;-57
2022/10/19 02:07:20;;;;;;;;;;;11.20;99.90;;;;;;5129413;27;1645;-57
2022/10/19 02:09:58;;;;;;;;;;;11.20;99.90;;;;;;5131214;27;2541;-57
2022/10/19 02:12:37;;;;;;;;;;;11.20;99.90;;;;;;5115697;27;1697;-55
2022/10/19 02:15:17;;;;;;;;;;;11.10;99.90;;;;;;5126798;27;2421;-55
2022/10/19 02:17:58;;;;;;;;;;;11.10;99.90;;;;;;5125353;27;2828;-56
2022/10/19 02:20:36;;;;;;;;;;;11.10;99.90;;;;;;5109872;27;1687;-55
2022/10/19 02:23:15;;;;;;;;;;;11.10;99.90;;;;;;5125070;27;1634;-54
2022/10/19 02:25:52;;;;;;;;;;;11.10;99.90;;;;;;5114882;27;1470;-56
2022/10/19 02:28:31;;;;;;;;;;;11.10;99.90;;;;;;5130603;27;1616;-57
2022/10/19 02:31:09;;;;;;;;;;;11.10;99.90;;;;;;5127751;27;1384;-56
2022/10/19 02:33:47;;;;;;;;;;;11.10;99.90;;;;;;5120461;27;1552;-58
2022/10/19 02:36:25;;;;;;;;;;;11.10;99.90;;;;;;5131385;27;1763;-58
2022/10/19 02:39:04;;;;;;;;;;;11.20;99.90;;;;;;5131762;27;1544;-56
2022/10/19 02:41:44;;;;;;;;;;;11.20;99.90;;;;;;5123894;27;1515;-56
2022/10/19 02:44:23;;;;;;;;;;;11.20;99.90;;;;;;5132451;27;2027;-55
2022/10/19 02:47:03;;;;;;;;;;;11.10;99.90;;;;;;5132375;27;1450;-56
2022/10/19 02:49:40;;;;;;;;;;;11.10;99.90;;;;;;5125509;27;1767;-55
2022/10/19 02:52:18;;;;;;;;;;;11.10;99.90;;;;;;5103309;27;1829;-56
2022/10/19 02:54:58;;;;;;;;;;;11.10;99.90;;;;;;5125303;27;1709;-56
2022/10/19 02:57:36;;;;;;;;;;;11.10;99.90;;;;;;5123271;27;1632;-56
2022/10/19 03:00:14;;;;;;;;;;;11.10;99.90;;;;;;5130614;27;1760;-55
2022/10/19 03:02:52;;;;;;;;;;;11.10;99.90;;;;;;5112801;27;1252;-55
2022/10/19 03:05:31;;;;;;;;;;;11.10;99.90;;;;;;5132084;27;1534;-55
2022/10/19 03:08:09;;;;;;;;;;;11.10;99.90;;;;;;5131830;27;1942;-56
2022/10/19 03:10:47;;;;;;;;;;;11.00;99.90;;;;;;5130066;27;1644;-54
2022/10/19 03:13:25;;;;;;;;;;;11.00;99.90;;;;;;5121221;27;1899;-58
2022/10/19 03:16:07;;;;;;;;;;;11.00;99.90;;;;;;5131568;27;1733;-56
2022/10/19 03:18:47;;;;;;;;;;;11.00;99.90;;;;;;5129990;27;1551;-56
2022/10/19 03:21:25;;;;;;;;;;;10.90;99.90;;;;;;5126889;27;1528;-56
2022/10/19 03:24:03;;;;;;;;;;;10.90;99.90;;;;;;5132472;27;1616;-58
2022/10/19 03:26:41;;;;;;;;;;;10.90;99.90;;;;;;5132376;27;1934;-56
2022/10/19 03:29:19;;;;;;;;;;;10.80;99.90;;;;;;5129660;27;1930;-55
2022/10/19 03:31:58;;;;;;;;;;;10.80;99.90;;;;;;5122225;27;1325;-57
2022/10/19 03:34:36;;;;;;;;;;;10.70;99.90;;;;;;5132767;27;1288;-56
2022/10/19 03:37:14;;;;;;;;;;;10.70;99.90;;;;;;5132831;27;2088;-56
2022/10/19 03:39:52;;;;;;;;;;;10.70;99.90;;;;;;5122779;27;1703;-55
2022/10/19 03:42:31;;;;;;;;;;;10.70;99.90;;;;;;5115618;27;1881;-56
2022/10/19 03:45:09;;;;;;;;;;;10.70;99.90;;;;;;5131742;27;1644;-57
2022/10/19 03:47:50;;;;;;;;;;;10.70;99.90;;;;;;5115786;27;1708;-56
2022/10/19 03:50:27;;;;;;;;;;;10.70;99.90;;;;;;5109559;27;1767;-56
2022/10/19 03:53:05;;;;;;;;;;;10.70;99.90;;;;;;5110479;27;1516;-58
2022/10/19 03:55:43;;;;;;;;;;;10.70;99.90;;;;;;5132943;27;1335;-56
2022/10/19 03:58:21;;;;;;;;;;;10.70;99.90;;;;;;5129751;27;1684;-57
2022/10/19 04:01:00;;;;;;;;;;;10.70;99.90;;;;;;5127672;27;1505;-55
2022/10/19 04:03:38;;;;;;;;;;;10.70;99.90;;;;;;5122185;27;1714;-55
2022/10/19 04:06:17;;;;;;;;;;;10.70;99.90;;;;;;5111264;27;1673;-56
2022/10/19 04:08:55;;;;;;;;;;;10.70;99.90;;;;;;5122743;27;2050;-55
2022/10/19 04:11:33;;;;;;;;;;;10.70;99.90;;;;;;5121205;27;1591;-56
2022/10/19 04:14:12;;;;;;;;;;;10.70;99.90;;;;;;5105797;27;1757;-57
2022/10/19 04:16:49;;;;;;;;;;;10.70;99.90;;;;;;5116371;27;1807;-57
2022/10/19 04:19:27;;;;;;;;;;;10.70;99.90;;;;;;5121820;27;1665;-57
2022/10/19 04:22:06;;;;;;;;;;;10.70;99.90;;;;;;5099259;27;1600;-57
2022/10/19 04:24:44;;;;;;;;;;;10.70;99.90;;;;;;5110054;27;1637;-56
2022/10/19 04:27:22;;;;;;;;;;;10.70;99.90;;;;;;5112710;27;1324;-56
2022/10/19 04:30:00;;;;;;;;;;;10.70;99.90;;;;;;5127949;27;1683;-56
2022/10/19 04:32:38;;;;;;;;;;;10.70;99.90;;;;;;5108284;27;2124;-55
2022/10/19 04:35:17;;;;;;;;;;;10.70;99.90;;;;;;5133465;27;1380;-58
2022/10/19 04:37:55;;;;;;;;;;;10.70;99.90;;;;;;5133355;27;1259;-55
2022/10/19 04:40:35;;;;;;;;;;;10.80;99.90;;;;;;5124646;27;1613;-56
2022/10/19 04:43:13;;;;;;;;;;;10.80;99.90;;;;;;5116834;27;1442;-57
2022/10/19 04:45:51;;;;;;;;;;;10.70;99.90;;;;;;5120150;27;1339;-57
2022/10/19 04:48:30;;;;;;;;;;;10.80;99.90;;;;;;5133459;27;1501;-56
2022/10/19 04:51:08;;;;;;;;;;;10.80;99.90;;;;;;5133189;27;1411;-56
2022/10/19 04:53:46;;;;;;;;;;;10.80;99.90;;;;;;5133562;27;1349;-56
2022/10/19 04:56:26;;;;;;;;;;;10.80;99.90;;;;;;5153839;27;1312;-55
2022/10/19 04:59:02;;;;;;;;;;;10.80;99.90;;;;;;5128074;27;1596;-55
2022/10/19 05:01:41;;;;;;;;;;;10.80;99.90;;;;;;5102639;27;1901;-56
2022/10/19 05:04:19;;;;;;;;;;;10.80;99.90;;;;;;5093049;27;1320;-56
2022/10/19 05:06:57;;;;;;;;;;;10.90;99.90;;;;;;5120775;27;2038;-59
2022/10/19 05:09:39;;;;;;;;;;;10.90;99.90;;;;;;5128209;27;1563;-57
2022/10/19 05:12:17;;;;;;;;;;;10.80;99.90;;;;;;5104922;27;1572;-55
2022/10/19 05:14:55;;;;;;;;;;;10.80;99.90;;;;;;5133498;27;1304;-57
2022/10/19 05:17:33;;;;;;;;;;;10.80;99.90;;;;;;5132864;27;1343;-55
2022/10/19 05:20:12;;;;;;;;;;;10.80;99.90;;;;;;5124533;27;1717;-57
2022/10/19 05:22:50;;;;;;;;;;;10.80;99.90;;;;;;5099789;27;1387;-56
2022/10/19 05:25:28;;;;;;;;;;;10.80;99.90;;;;;;5125981;27;1344;-56
2022/10/19 05:28:06;;;;;;;;;;;10.80;99.90;;;;;;5126297;27;1903;-55
2022/10/19 05:30:44;;;;;;;;;;;10.90;99.90;;;;;;5131734;27;1259;-55
2022/10/19 05:33:22;;;;;;;;;;;10.90;99.90;;;;;;5124918;27;1553;-56
2022/10/19 05:36:09;;;;;;;;;;;10.90;99.90;;;;;;5131395;27;1423;-57
2022/10/19 05:38:49;;;;;;;;;;;10.80;99.90;;;;;;5128340;27;1435;-57
2022/10/19 05:41:27;;;;;;;;;;;10.80;99.90;;;;;;5103469;27;1810;-58
2022/10/19 05:44:05;;;;;;;;;;;10.80;99.90;;;;;;5130412;27;1724;-56
2022/10/19 05:46:43;;;;;;;;;;;10.80;99.90;;;;;;5131080;27;1571;-55
2022/10/19 05:49:22;;;;;;;;;;;10.80;99.90;;;;;;5140544;27;1407;-55
2022/10/19 05:52:00;;;;;;;;;;;10.80;99.90;;;;;;5121419;27;1354;-55
2022/10/19 05:54:38;;;;;;;;;;;10.90;99.90;;;;;;5133435;27;1478;-55
2022/10/19 05:57:16;;;;;;;;;;;10.90;99.90;;;;;;5132904;27;1670;-55
2022/10/19 05:59:57;;;;;;;;;;;10.80;99.90;;;;;;5122138;27;1782;-56
2022/10/19 06:02:34;;;;;;;;;;;10.80;99.90;;;;;;5097993;27;1656;-55
2022/10/19 06:05:12;;;;;;;;;;;10.80;99.90;;;;;;5116747;27;1642;-55
2022/10/19 06:07:51;;;;;;;;;;;10.80;99.90;;;;;;5121143;27;1275;-56
2022/10/19 06:10:29;;;;;;;;;;;10.90;99.90;;;;;;5075225;27;1986;-56
2022/10/19 06:13:08;;;;;;;;;;;11.00;99.90;;;;;;5109932;27;2278;-57
2022/10/19 06:15:49;;;;;;;;;;;11.00;99.90;;;;;;5130690;27;1833;-56
2022/10/19 06:18:27;;;;;;;;;;;11.00;99.90;;;;;;5117503;27;1862;-58
2022/10/19 06:21:06;;;;;;;;;;;11.00;99.90;;;;;;5095624;27;1321;-55
2022/10/19 06:23:43;;;;;;;;;;;11.10;99.90;;;;;;5114670;27;1512;-58
2022/10/19 06:26:21;;;;;;;;;;;11.10;99.90;;;;;;5134055;27;1340;-55
2022/10/19 06:29:00;;;;;;;;;;;11.10;99.90;;;;;;5127403;27;1952;-56
2022/10/19 06:31:38;;;;;;;;;;;11.10;99.90;;;;;;5104869;27;1938;-56
2022/10/19 06:34:16;;;;;;;;;;;11.10;99.90;;;;;;5076458;27;1493;-57
2022/10/19 06:36:54;;;;;;;;;;;11.00;99.90;;;;;;5133286;27;1533;-54
2022/10/19 06:39:33;;;;;;;;;;;11.00;99.90;;;;;;5133403;27;1376;-57
2022/10/19 06:42:11;;;;;;;;;;;11.10;99.90;;;;;;5117289;27;2519;-57
2022/10/19 06:44:49;;;;;;;;;;;11.10;99.90;;;;;;5128258;27;1955;-57
2022/10/19 06:47:31;;;;;;;;;;;11.10;99.90;;;;;;5133227;27;1691;-55
2022/10/19 06:50:09;;;;;;;;;;;11.20;99.90;;;;;;5132037;27;1387;-56
2022/10/19 06:52:47;;;;;;;;;;;11.30;99.90;;;;;;5115022;27;1556;-57
2022/10/19 06:55:25;;;;;;;;;;;11.20;99.90;;;;;;5134012;27;1446;-57
2022/10/19 06:58:03;;;;;;;;;;;11.30;99.90;;;;;;5133996;27;1328;-57
2022/10/19 07:00:42;;;;;;;;;;;11.30;99.90;;;;;;5111426;27;1992;-58
2022/10/19 07:03:20;;;;;;;;;;;11.40;99.90;;;;;;5113501;27;1456;-56
2022/10/19 07:05:59;;;;;;;;;;;11.40;99.90;;;;;;5133512;27;1825;-56
2022/10/19 07:08:37;;;;;;;;;;;11.50;99.90;;;;;;5131824;27;2103;-55
2022/10/19 07:11:16;;;;;;;;;;;11.70;99.90;;;;;;5113197;27;1533;-55
2022/10/19 07:13:53;;;;;;;;;;;11.70;99.90;;;;;;5132901;27;1527;-55
2022/10/19 07:16:31;;;;;;;;;;;11.90;99.90;;;;;;5115972;27;1291;-56
2022/10/19 07:19:10;;;;;;;;;;;12.00;99.90;;;;;;5089211;27;1568;-56
2022/10/19 07:21:50;;;;;;;;;;;12.00;99.90;;;;;;5121774;27;1460;-55
2022/10/19 07:24:27;;;;;;;;;;;12.10;99.90;;;;;;5095210;27;1398;-56
2022/10/19 07:27:06;;;;;;;;;;;12.00;99.90;;;;;;5133954;27;1297;-55
2022/10/19 07:29:44;;;;;;;;;;;12.00;99.90;;;;;;5123190;27;1373;-54
2022/10/19 07:32:22;;;;;;;;;;;12.00;99.90;;;;;;5120140;27;1416;-57
2022/10/19 07:35:00;;;;;;;;;;;11.80;99.90;;;;;;5134202;27;1284;-54
2022/10/19 07:37:38;;;;;;;;;;;11.70;99.90;;;;;;5134272;27;1324;-55
2022/10/19 07:40:17;;;;;;;;;;;11.70;99.90;;;;;;5125867;27;1687;-54
2022/10/19 07:42:55;;;;;;;;;;;11.70;99.90;;;;;;5114243;27;1813;-56
2022/10/19 07:45:33;;;;;;;;;;;11.80;99.90;;;;;;5108311;27;2083;-55
2022/10/19 07:48:11;;;;;;;;;;;11.80;99.90;;;;;;5094648;27;1670;-56
2022/10/19 07:50:50;;;;;;;;;;;11.90;99.90;;;;;;5131723;27;2925;-56
2022/10/19 07:53:28;;;;;;;;;;;12.20;99.90;;;;;;5133333;27;1318;-56
2022/10/19 07:56:07;;;;;;;;;;;12.50;99.90;;;;;;5095408;27;1300;-56
2022/10/19 07:58:45;;;;;;;;;;;12.60;99.90;;;;;;5133318;27;1314;-55
2022/10/19 08:01:24;;;;;;;;;;;12.60;99.90;;;;;;5128156;27;1329;-56
2022/10/19 08:04:01;;;;;;;;;;;12.60;99.90;;;;;;5132410;27;1526;-55
2022/10/19 08:06:39;;;;;;;;;;;12.50;99.90;;;;;;5131354;27;1351;-55
2022/10/19 08:09:17;;;;;;;;;;;12.60;99.90;;;;;;5128964;27;1660;-55
2022/10/19 08:11:55;;;;;;;;;;;12.70;99.90;;;;;;5103259;27;1774;-55
2022/10/19 08:14:34;;;;;;;;;;;13.00;99.90;;;;;;5124920;27;1282;-55
2022/10/19 08:17:15;;;;;;;;;;;13.30;99.90;;;;;;5131451;27;1586;-55
2022/10/19 08:19:53;;;;;;;;;;;13.70;99.90;;;;;;5133259;27;1328;-55
2022/10/19 08:22:32;;;;;;;;;;;14.00;99.90;;;;;;5118164;27;1337;-54
2022/10/19 08:25:10;;;;;;;;;;;14.30;99.90;;;;;;5134091;27;1267;-55
2022/10/19 08:27:48;;;;;;;;;;;14.70;99.90;;;;;;5133338;27;1343;-55
2022/10/19 08:30:26;;;;;;;;;;;14.90;99.90;;;;;;5133533;27;1491;-55
2022/10/19 08:33:07;;;;;;;;;;;15.10;99.90;;;;;;5114164;27;1366;-55
2022/10/19 08:35:44;;;;;;;;;;;15.10;99.90;;;;;;5114839;27;1903;-54
2022/10/19 08:38:22;;;;;;;;;;;15.30;99.90;;;;;;5132391;27;1712;-56
2022/10/19 08:41:04;;;;;;;;;;;15.40;99.90;;;;;;5132056;27;1799;-55
2022/10/19 08:43:48;;;;;;;;;;;15.40;99.90;;;;;;5119010;27;1322;-54
2022/10/19 08:46:32;;;;;;;;;;;15.40;99.90;;;;;;5117246;27;1345;-55
2022/10/19 08:49:09;;;;;;;;;;;;;;;;;;5094706;27;1395;-56
2022/10/19 08:51:45;;;;;;;;;;;;;;;;;;5075090;27;1367;-54
2022/10/19 08:54:24;;;;;;;;;;;15.10;99.90;;;;;;5134207;27;1395;-54
2022/10/19 08:57:04;;;;;;;;;;;15.10;99.90;;;;;;5122046;27;2013;-56
2022/10/19 08:59:45;;;;;;;;;;;15.10;99.90;;;;;;5114173;27;1880;-55
2022/10/19 09:02:27;;;;;;;;;;;15.10;99.90;;;;;;5117946;27;1406;-55
2022/10/19 09:05:11;;;;;;;;;;;15.10;99.90;;;;;;5133323;27;1711;-57
2022/10/19 09:07:51;;;;;;;;;;;15.20;99.90;;;;;;5122194;27;2172;-55
2022/10/19 09:10:30;;;;;;;;;;;15.30;99.90;;;;;;5127932;27;1979;-58
2022/10/19 09:13:10;;;;;;;;;;;15.20;99.90;;;;;;5108374;27;1673;-56
2022/10/19 09:15:47;;;;;;;;;;;15.30;99.90;;;;;;5133386;27;1376;-55
2022/10/19 09:18:27;;;;;;;;;;;15.40;99.90;;;;;;5132202;27;1326;-54
2022/10/19 09:21:07;;;;;;;;;;;15.60;99.90;;;;;;5132313;27;1405;-55
2022/10/19 09:23:47;;;;;;;;;;;15.70;99.90;;;;;;5122255;27;1645;-55
2022/10/19 09:26:26;;;;;;;;;;;15.50;99.90;;;;;;5132700;27;1473;-55
2022/10/19 09:29:06;;;;;;;;;;;15.40;99.90;;;;;;5130151;27;1465;-54
2022/10/19 09:31:44;;;;;;;;;;;15.10;99.90;;;;;;5122339;27;1915;-56
2022/10/19 09:34:24;;;;;;;;;;;14.80;99.90;;;;;;5117098;27;1548;-55
2022/10/19 09:37:02;;;;;;;;;;;14.70;99.90;;;;;;5133474;27;1704;-55
2022/10/19 09:39:40;;;;;;;;;;;14.60;99.90;;;;;;5133434;27;1514;-56
2022/10/19 09:42:21;;;;;;;;;;;14.70;99.90;;;;;;5121098;27;1376;-56
2022/10/19 09:45:01;;;;;;;;;;;14.80;99.90;;;;;;5134195;27;1800;-55
2022/10/19 09:47:39;;;;;;;;;;;15.00;99.90;;;;;;5133835;27;1420;-55
2022/10/19 09:50:18;;;;;;;;;;;15.10;99.90;;;;;;5134006;27;1335;-54
2022/10/19 09:52:57;;;;;;;;;;;15.20;99.90;;;;;;5115969;27;1761;-51
2022/10/19 09:55:36;;;;;;;;;;;15.40;99.90;;;;;;5135433;22;1692;-58
2022/10/19 09:58:18;;;;;;;;;;;15.40;99.90;;;;;;5133050;27;1386;-57
2022/10/19 10:00:56;;;;;;;;;;;15.50;99.90;;;;;;5122523;27;1885;-57
2022/10/19 10:03:35;;;;;;;;;;;15.70;99.90;;;;;;5117658;27;2282;-56
2022/10/19 10:06:13;;;;;;;;;;;15.90;99.90;;;;;;5113526;27;1979;-57
2022/10/19 10:08:56;;;;;;;;;;;16.10;99.90;;;;;;5129519;27;2132;-58
2022/10/19 10:11:36;;;;;;;;;;;16.20;99.90;;;;;;5116504;27;1612;-57
2022/10/19 10:14:17;;;;;;;;;;;16.10;99.90;;;;;;5115504;27;1482;-57
2022/10/19 10:16:56;;;;;;;;;;;16.10;99.90;;;;;;5131660;27;1339;-56
2022/10/19 10:19:36;;;;;;;;;;;16.30;99.90;;;;;;5124249;27;1753;-57
2022/10/19 10:22:22;;;;;;;;;;;16.50;99.90;;;;;;5119225;27;1671;-56
2022/10/19 10:24:59;;;;;;;;;;;16.70;99.90;;;;;;5124675;27;1864;-57
2022/10/19 10:27:38;;;;;;;;;;;16.90;99.90;;;;;;5122240;27;1664;-57
2022/10/19 10:30:18;;;;;;;;;;;17.20;99.90;;;;;;5110467;27;1458;-56
2022/10/19 10:32:55;;;;;;;;;;;17.30;99.90;;;;;;5128959;27;1375;-57
2022/10/19 10:35:34;;;;;;;;;;;17.40;99.90;;;;;;5119367;27;1557;-57
2022/10/19 10:38:14;;;;;;;;;;;17.20;99.90;;;;;;5131819;27;1337;-57
2022/10/19 10:40:52;;;;;;;;;;;17.20;99.90;;;;;;5070133;27;1684;-56
2022/10/19 10:43:31;;;;;;;;;;;17.40;99.90;;;;;;5086566;27;1298;-57
2022/10/19 10:46:12;;;;;;;;;;;17.40;99.90;;;;;;5115366;27;1384;-57
2022/10/19 10:48:54;;;;;;;;;;;17.30;99.90;;;;;;5119861;27;1438;-57
2022/10/19 10:51:37;;;;;;;;;;;17.30;99.90;;;;;;5113949;27;1730;-57
2022/10/19 10:54:20;;;;;;;;;;;17.50;99.90;;;;;;5131891;27;1372;-57
2022/10/19 10:57:15;;;;;;;;;;;17.60;99.90;;;;;;5133084;27;1649;-57
2022/10/19 10:59:55;;;;;;;;;;;17.10;99.90;;;;;;5123208;27;1627;-57
2022/10/19 11:02:35;;;;;;;;;;;16.60;99.90;;;;;;5125177;27;1638;-57
2022/10/19 11:05:17;;;;;;;;;;;16.30;99.90;;;;;;5121426;27;1817;-56
2022/10/19 11:08:07;;;;;;;;;;;16.10;99.90;;;;;;5131436;27;1868;-57
2022/10/19 11:10:48;;;;;;;;;;;15.80;99.90;;;;;;5118187;27;1776;-56
2022/10/19 11:13:28;;;;;;;;;;;15.70;99.90;;;;;;5125381;27;2439;-57
2022/10/19 11:16:11;;;;;;;;;;;15.40;99.90;;;;;;5116408;27;1541;-57
2022/10/19 11:18:51;;;;;;;;;;;15.30;99.90;;;;;;5120148;27;1988;-57
2022/10/19 11:21:31;;;;;;;;;;;14.90;99.90;;;;;;5117829;27;1343;-56
2022/10/19 11:24:15;;;;;;;;;;;14.50;99.90;;;;;;5114836;27;1947;-56
2022/10/19 11:26:58;;;;;;;;;;;14.30;99.90;;;;;;5095889;27;1327;-56
2022/10/19 11:29:42;;;;;;;;;;;14.30;99.90;;;;;;5133689;27;1267;-57
2022/10/19 11:32:24;;;;;;;;;;;14.40;99.90;;;;;;5138652;27;1638;-57
2022/10/19 11:35:12;;;;;;;;;;;14.30;99.90;;;;;;5125821;27;1377;-57
2022/10/19 11:37:56;;;;;;;;;;;14.20;99.90;;;;;;5085882;27;1615;-56
2022/10/19 11:40:35;;;;;;;;;;;14.20;99.90;;;;;;5126325;27;1760;-56
2022/10/19 11:43:18;;;;;;;;;;;14.10;99.90;;;;;;5109498;27;1600;-56
2022/10/19 11:45:59;;;;;;;;;;;14.00;99.90;;;;;;5117374;27;1341;-56
2022/10/19 11:48:48;;;;;;;;;;;13.90;99.90;;;;;;5119077;27;1905;-56
2022/10/19 11:51:30;;;;;;;;;;;13.90;99.90;;;;;;5120957;27;1662;-57
2022/10/19 11:54:20;;;;;;;;;;;13.90;99.90;;;;;;5134110;27;1526;-57
2022/10/19 11:57:00;;;;;;;;;;;13.90;99.90;;;;;;5133919;27;1535;-56
2022/10/19 11:59:44;;;;;;;;;;;14.00;99.90;;;;;;5132943;27;1350;-57
2022/10/19 12:02:41;;;;;;;;;;;14.00;99.90;;;;;;5093706;27;1349;-57
2022/10/19 12:05:23;;;;;;;;;;;14.10;99.90;;;;;;5102638;27;1504;-57
2022/10/19 12:08:07;;;;;;;;;;;14.10;99.90;;;;;;5098778;27;1337;-56
2022/10/19 12:10:47;;;;;;;;;;;14.00;99.90;;;;;;5122447;27;1344;-56
2022/10/19 12:13:27;;;;;;;;;;;14.10;99.90;;;;;;5125693;27;1564;-56
2022/10/19 12:16:06;;;;;;;;;;;14.00;99.90;;;;;;5116444;27;1379;-56
2022/10/19 12:18:46;;;;;;;;;;;14.00;99.90;;;;;;5121992;27;2177;-56
2022/10/19 12:21:26;;;;;;;;;;;14.10;99.90;;;;;;5117394;27;1597;-56
2022/10/19 12:24:06;;;;;;;;;;;14.10;99.90;;;;;;5134074;27;1338;-56
2022/10/19 12:26:43;;;;;;;;;;;14.10;99.90;;;;;;5122246;27;1661;-56
2022/10/19 12:29:23;;;;;;;;;;;14.10;99.90;;;;;;5130889;27;1384;-56
2022/10/19 12:32:02;;;;;;;;;;;14.10;99.90;;;;;;5133911;27;1417;-56
2022/10/19 12:34:44;;;;;;;;;;;14.10;99.90;;;;;;5111872;27;1627;-56
2022/10/19 12:37:27;;;;;;;;;;;14.00;99.90;;;;;;5132603;27;1535;-56
2022/10/19 12:40:06;;;;;;;;;;;14.00;99.90;;;;;;5127198;27;1438;-57
2022/10/19 12:42:50;;;;;;;;;;;14.10;99.90;;;;;;5124819;27;1464;-56
2022/10/19 12:45:31;;;;;;;;;;;14.10;99.90;;;;;;5085438;27;1330;-56
2022/10/19 12:48:23;;;;;;;;;;;14.20;99.90;;;;;;5134106;27;1531;-56
2022/10/19 12:51:10;;;;;;;;;;;14.10;99.90;;;;;;5133469;27;1565;-56
2022/10/19 12:53:49;;;;;;;;;;;14.10;99.90;;;;;;5134081;27;1320;-56
2022/10/19 12:56:27;;;;;;;;;;;14.10;99.90;;;;;;5114725;27;1299;-56
2022/10/19 12:59:06;;;;;;;;;;;14.10;99.90;;;;;;5133426;27;1279;-56
2022/10/19 13:01:44;;;;;;;;;;;14.00;99.90;;;;;;5132132;27;1446;-56
2022/10/19 13:04:23;;;;;;;;;;;14.00;99.90;;;;;;5111764;27;1746;-56
2022/10/19 13:07:02;;;;;;;;;;;14.00;99.90;;;;;;5129074;27;1566;-56
2022/10/19 13:09:41;;;;;;;;;;;13.90;99.90;;;;;;5132869;27;1489;-56
2022/10/19 13:12:43;;;;;;;;;;;13.90;99.90;;;;;;5092118;27;1791;-57
2022/10/19 13:15:39;;;;;;;;;;;14.00;99.90;;;;;;5144875;27;1402;-61
2022/10/19 13:18:36;;;;;;;;;;;14.00;99.90;;;;;;5133885;27;1332;-57
2022/10/19 13:21:33;;;;;;;;;;;14.10;99.90;;;;;;5134401;27;1675;-57
2022/10/19 13:24:24;;;;;;;;;;;14.10;99.90;;;;;;5126922;27;1927;-57
2022/10/19 13:27:19;;;;;;;;;;;14.00;99.90;;;;;;5129916;27;1892;-57
2022/10/19 13:29:56;;;;;;;;;;;14.00;99.90;;;;;;5133452;27;1588;-57
2022/10/19 13:32:41;;;;;;;;;;;13.90;99.90;;;;;;5133403;27;1744;-58
2022/10/19 13:35:35;;;;;;;;;;;13.90;99.90;;;;;;5108886;27;1618;-56
2022/10/19 13:38:22;;;;;;;;;;;13.90;99.90;;;;;;5111861;27;2390;-57
2022/10/19 13:41:03;;;;;;;;;;;13.90;99.90;;;;;;5132211;27;1859;-56
2022/10/19 13:43:48;;;;;;;;;;;13.90;99.90;;;;;;5134868;27;1917;-56
2022/10/19 13:46:44;;;;;;;;;;;13.80;99.90;;;;;;5115641;27;1578;-56
2022/10/19 13:49:41;;;;;;;;;;;13.80;99.90;;;;;;5133838;27;1274;-56
2022/10/19 13:52:37;;;;;;;;;;;13.80;99.90;;;;;;5135049;27;1347;-56
2022/10/19 13:55:28;;;;;;;;;;;13.80;99.90;;;;;;5088024;27;1632;-57
2022/10/19 13:58:16;;;;;;;;;;;13.80;99.90;;;;;;5135436;27;1343;-57
2022/10/19 14:01:03;;;;;;;;;;;13.70;99.90;;;;;;5135064;27;1296;-56
2022/10/19 14:03:50;;;;;;;;;;;13.70;99.90;;;;;;5133331;27;1534;-57
2022/10/19 14:06:30;;;;;;;;;;;13.70;99.90;;;;;;5099461;27;2297;-57
2022/10/19 14:09:15;;;;;;;;;;;13.70;99.90;;;;;;5133532;27;1352;-56
2022/10/19 14:11:54;;;;;;;;;;;13.70;99.90;;;;;;5092516;27;1531;-57
2022/10/19 14:14:38;;;;;;;;;;;13.70;99.90;;;;;;5130841;27;1316;-57
2022/10/19 14:17:17;;;;;;;;;;;13.70;99.90;;;;;;5134486;27;1300;-57
2022/10/19 14:19:55;;;;;;;;;;;13.60;99.90;;;;;;5133347;27;1347;-57
2022/10/19 14:22:33;;;;;;;;;;;13.50;99.90;;;;;;5134062;27;1280;-57
2022/10/19 14:25:17;;;;;;;;;;;13.50;99.90;;;;;;5124643;27;1695;-58
2022/10/19 14:27:58;;;;;;;;;;;13.50;99.90;;;;;;5133522;27;1368;-57
2022/10/19 14:30:36;;;;;;;;;;;13.50;99.90;;;;;;5132682;27;1316;-57
2022/10/19 14:33:16;;;;;;;;;;;13.50;99.90;;;;;;5133845;27;1243;-57
2022/10/19 14:35:54;;;;;;;;;;;13.40;99.90;;;;;;5080538;27;1346;-57
2022/10/19 14:38:34;;;;;;;;;;;13.20;99.90;;;;;;5133310;27;1395;-57
2022/10/19 14:41:19;;;;;;;;;;;13.20;99.90;;;;;;5133955;27;1344;-57
2022/10/19 14:43:56;;;;;;;;;;;13.10;99.90;;;;;;5134271;27;1396;-56
2022/10/19 14:46:34;;;;;;;;;;;13.10;99.90;;;;;;5107269;27;1984;-56
2022/10/19 14:49:12;;;;;;;;;;;13.10;99.90;;;;;;5113106;27;1993;-58
2022/10/19 14:51:53;;;;;;;;;;;13.10;99.90;;;;;;5126032;27;1775;-57
2022/10/19 14:54:34;;;;;;;;;;;13.00;99.90;;;;;;5115560;27;2013;-59
2022/10/19 14:57:14;;;;;;;;;;;12.90;99.90;;;;;;5133819;27;1559;-57
2022/10/19 14:59:53;;;;;;;;;;;12.80;99.90;;;;;;5134030;27;1436;-58
2022/10/19 15:02:32;;;;;;;;;;;12.70;99.90;;;;;;5132762;27;1457;-57
2022/10/19 15:05:17;;;;;;;;;;;12.60;99.90;;;;;;5125253;27;2059;-56
2022/10/19 15:07:55;;;;;;;;;;;12.70;99.90;;;;;;5113534;27;1905;-56
2022/10/19 15:10:40;;;;;;;;;;;12.70;99.90;;;;;;5132158;27;1837;-57
2022/10/19 15:13:21;;;;;;;;;;;12.60;99.90;;;;;;5116357;27;2065;-57
2022/10/19 15:15:59;;;;;;;;;;;12.40;99.90;;;;;;5118154;27;1552;-57
2022/10/19 15:18:38;;;;;;;;;;;12.30;99.90;;;;;;5134393;27;1347;-56
2022/10/19 15:21:17;;;;;;;;;;;12.20;99.90;;;;;;5128360;27;1936;-57
2022/10/19 15:24:05;;;;;;;;;;;12.10;99.90;;;;;;5126710;27;1378;-56
2022/10/19 15:26:49;;;;;;;;;;;12.00;99.90;;;;;;5128263;27;1650;-56
2022/10/19 15:29:29;;;;;;;;;;;11.90;99.90;;;;;;5120357;27;1839;-56
2022/10/19 15:32:16;;;;;;;;;;;11.70;99.90;;;;;;5132782;27;1471;-57
2022/10/19 15:34:54;;;;;;;;;;;11.60;99.90;;;;;;5127996;27;1635;-56
2022/10/19 15:37:32;;;;;;;;;;;11.50;99.90;;;;;;5133501;27;1318;-56
2022/10/19 15:40:11;;;;;;;;;;;11.40;99.90;;;;;;5131252;27;1293;-56
2022/10/19 15:42:50;;;;;;;;;;;11.20;99.90;;;;;;5111797;27;1608;-56
2022/10/19 15:45:30;;;;;;;;;;;11.00;99.90;;;;;;5115085;27;1414;-56
2022/10/19 15:48:24;;;;;;;;;;;10.80;99.90;;;;;;5133125;27;1682;-57